createdAt,value
2018-07-31T00:01:03.882Z,76.80
2018-07-31T00:06:22.904Z,76.20
2018-07-31T00:08:52.968Z,76.80
2018-07-31T00:11:21.678Z,77.70
2018-07-31T00:16:19.641Z,78.00
2018-07-31T00:18:48.276Z,78.50
2018-07-31T00:21:16.947Z,78.60
2018-07-31T00:23:45.614Z,79.00
2018-07-31T00:26:14.365Z,79.30
2018-07-31T00:28:43.843Z,79.60
2018-07-31T00:31:12.447Z,79.70
2018-07-31T00:33:41.043Z,80.40
2018-07-31T00:36:09.652Z,80.70
2018-07-31T00:38:38.305Z,80.50
2018-07-31T00:41:06.948Z,80.80
2018-07-31T00:43:35.548Z,81.10
2018-07-31T00:46:04.227Z,80.00
2018-07-31T00:48:32.839Z,78.70
2018-07-31T00:51:01.452Z,78.10
2018-07-31T00:53:30.064Z,77.80
2018-07-31T00:55:58.680Z,78.50
2018-07-31T00:58:27.290Z,78.60
2018-07-31T01:00:55.932Z,78.70
2018-07-31T01:03:24.571Z,78.60
2018-07-31T01:05:53.247Z,78.80
2018-07-31T01:08:21.860Z,79.50
2018-07-31T01:10:50.575Z,79.60
2018-07-31T01:13:19.184Z,80.50
2018-07-31T01:15:47.791Z,80.50
2018-07-31T01:18:16.402Z,80.40
2018-07-31T01:20:48.252Z,80.70
2018-07-31T01:23:17.009Z,80.40
2018-07-31T01:25:45.603Z,80.50
2018-07-31T01:28:14.278Z,80.60
2018-07-31T01:30:42.896Z,81.00
2018-07-31T01:33:11.500Z,80.70
2018-07-31T01:35:40.108Z,80.60
2018-07-31T01:38:08.280Z,80.20
2018-07-31T01:40:37.013Z,80.00
2018-07-31T01:43:05.651Z,80.20
2018-07-31T01:45:34.339Z,80.30
2018-07-31T01:48:02.941Z,81.10
2018-07-31T01:50:31.536Z,81.40
2018-07-31T01:53:00.176Z,82.20
2018-07-31T01:55:28.783Z,82.20
2018-07-31T01:57:57.400Z,82.20
2018-07-31T02:00:26.000Z,82.20
2018-07-31T02:02:54.607Z,82.10
2018-07-31T02:05:23.232Z,82.50
2018-07-31T02:07:52.291Z,82.70
2018-07-31T02:10:20.884Z,82.70
2018-07-31T02:12:49.483Z,83.20
2018-07-31T02:15:18.127Z,83.40
2018-07-31T02:17:46.736Z,83.30
2018-07-31T02:20:15.349Z,83.70
2018-07-31T02:22:43.951Z,83.50
2018-07-31T02:25:12.605Z,83.80
2018-07-31T02:27:41.207Z,84.20
2018-07-31T02:30:14.228Z,84.50
2018-07-31T02:35:11.080Z,83.10
2018-07-31T02:37:39.729Z,82.60
2018-07-31T02:40:08.354Z,82.30
2018-07-31T02:45:07.460Z,83.00
2018-07-31T02:47:36.076Z,83.30
2018-07-31T02:50:05.156Z,83.60
2018-07-31T02:52:33.821Z,84.00
2018-07-31T02:55:07.904Z,84.40
2018-07-31T02:57:36.604Z,84.80
2018-07-31T03:00:06.552Z,84.50
2018-07-31T03:02:35.249Z,84.40
2018-07-31T03:05:04.552Z,84.50
2018-07-31T03:07:33.181Z,85.00
2018-07-31T03:10:01.863Z,85.30
2018-07-31T03:12:30.432Z,85.50
2018-07-31T03:14:59.068Z,85.30
2018-07-31T03:17:27.699Z,84.90
2018-07-31T03:19:56.304Z,84.60
2018-07-31T03:22:24.912Z,83.70
2018-07-31T03:24:53.548Z,83.20
2018-07-31T03:27:22.153Z,83.60
2018-07-31T03:29:50.748Z,83.70
2018-07-31T03:32:19.380Z,83.80
2018-07-31T03:34:47.990Z,84.00
2018-07-31T03:37:16.599Z,84.30
2018-07-31T03:39:45.200Z,84.50
2018-07-31T03:42:13.815Z,84.90
2018-07-31T03:44:42.465Z,85.00
2018-07-31T03:47:11.112Z,85.20
2018-07-31T03:49:39.719Z,85.60
2018-07-31T03:52:08.319Z,85.60
2018-07-31T03:54:36.923Z,85.90
2018-07-31T03:57:05.700Z,85.90
2018-07-31T03:59:34.308Z,85.90
2018-07-31T04:02:02.936Z,85.90
2018-07-31T04:04:31.543Z,85.70
2018-07-31T04:07:00.144Z,85.70
2018-07-31T04:09:28.743Z,85.30
2018-07-31T04:11:57.344Z,85.00
2018-07-31T04:14:25.932Z,84.70
2018-07-31T04:16:54.603Z,84.60
2018-07-31T04:19:23.200Z,84.60
2018-07-31T04:21:51.797Z,84.90
2018-07-31T04:24:20.391Z,85.10
2018-07-31T04:26:49.011Z,85.30
2018-07-31T04:29:17.608Z,85.20
2018-07-31T04:31:46.214Z,85.60
2018-07-31T04:34:14.808Z,86.20
2018-07-31T04:36:43.436Z,86.20
2018-07-31T04:39:13.331Z,86.10
2018-07-31T04:41:42.168Z,85.90
2018-07-31T04:44:10.796Z,85.60
2018-07-31T04:46:39.449Z,85.20
2018-07-31T04:49:08.056Z,84.70
2018-07-31T04:51:36.708Z,84.00
2018-07-31T04:54:05.368Z,83.60
2018-07-31T04:59:02.224Z,84.00
2018-07-31T05:01:30.847Z,83.90
2018-07-31T05:03:59.455Z,84.90
2018-07-31T05:06:28.051Z,85.10
2018-07-31T05:08:56.750Z,85.40
2018-07-31T05:11:25.459Z,85.80
2018-07-31T05:13:54.056Z,86.50
2018-07-31T05:16:22.696Z,86.80
2018-07-31T05:18:51.296Z,87.00
2018-07-31T05:21:19.914Z,87.30
2018-07-31T05:23:48.535Z,87.30
2018-07-31T05:26:17.199Z,87.10
2018-07-31T05:28:45.796Z,86.90
2018-07-31T05:31:14.391Z,86.50
2018-07-31T05:33:42.991Z,86.50
2018-07-31T05:36:11.608Z,86.60
2018-07-31T05:38:40.207Z,86.30
2018-07-31T05:41:08.813Z,86.20
2018-07-31T05:43:37.402Z,85.90
2018-07-31T05:46:06.249Z,85.60
2018-07-31T05:48:34.895Z,85.50
2018-07-31T05:51:03.539Z,85.60
2018-07-31T05:53:32.411Z,85.00
2018-07-31T05:56:01.172Z,84.30
2018-07-31T05:58:29.772Z,83.70
2018-07-31T06:00:58.376Z,83.50
2018-07-31T06:03:27.032Z,83.30
2018-07-31T06:05:55.628Z,82.80
2018-07-31T06:08:24.231Z,82.70
2018-07-31T06:10:52.823Z,81.90
2018-07-31T06:13:21.432Z,81.00
2018-07-31T06:15:50.041Z,80.80
2018-07-31T06:18:18.676Z,78.90
2018-07-31T06:20:47.288Z,77.10
2018-07-31T06:23:15.936Z,75.00
2018-07-31T06:25:44.561Z,73.30
2018-07-31T06:28:13.159Z,71.30
2018-07-31T06:30:50.164Z,69.60
2018-07-31T06:33:22.614Z,68.90
2018-07-31T06:35:51.264Z,66.60
2018-07-31T06:38:20.619Z,65.30
2018-07-31T06:40:49.467Z,63.20
2018-07-31T06:43:19.036Z,61.30
2018-07-31T06:45:48.124Z,59.80
2018-07-31T06:48:17.644Z,58.70
2018-07-31T06:50:50.866Z,57.40
2018-07-31T06:53:20.999Z,56.70
2018-07-31T06:58:47.163Z,54.90
2018-07-31T07:01:16.353Z,54.80
2018-07-31T07:03:49.856Z,54.20
2018-07-31T07:11:40.661Z,52.70
2018-07-31T07:14:09.363Z,52.00
2018-07-31T07:16:55.535Z,51.40
2018-07-31T07:19:24.295Z,50.70
2018-07-31T07:22:00.551Z,51.30
2018-07-31T07:24:29.243Z,50.20
2018-07-31T07:27:01.997Z,49.20
2018-07-31T07:29:30.771Z,49.10
2018-07-31T07:31:59.509Z,48.60
2018-07-31T07:34:28.201Z,48.50
2018-07-31T07:36:56.879Z,48.30
2018-07-31T07:39:25.512Z,47.60
2018-07-31T07:41:54.201Z,47.70
2018-07-31T07:44:22.928Z,47.30
2018-07-31T07:46:51.581Z,47.60
2018-07-31T07:49:20.287Z,47.20
2018-07-31T07:51:48.941Z,46.60
2018-07-31T07:54:17.699Z,46.10
2018-07-31T07:56:46.348Z,46.00
2018-07-31T07:59:15.036Z,45.70
2018-07-31T08:01:43.707Z,46.40
2018-07-31T08:04:12.412Z,46.30
2018-07-31T08:06:41.135Z,45.80
2018-07-31T08:09:10.318Z,45.20
2018-07-31T08:11:39.140Z,45.20
2018-07-31T08:14:07.867Z,45.40
2018-07-31T08:16:36.584Z,45.50
2018-07-31T08:19:05.271Z,45.50
2018-07-31T08:21:33.927Z,45.80
2018-07-31T08:24:02.722Z,45.80
2018-07-31T08:26:31.437Z,46.20
2018-07-31T08:29:00.056Z,46.30
2018-07-31T08:31:28.828Z,46.20
2018-07-31T08:33:57.469Z,46.50
2018-07-31T08:36:26.122Z,46.60
2018-07-31T08:38:54.792Z,46.60
2018-07-31T08:41:23.433Z,46.60
2018-07-31T08:43:52.360Z,47.10
2018-07-31T08:46:21.017Z,47.50
2018-07-31T08:48:49.653Z,47.20
2018-07-31T08:51:18.327Z,46.90
2018-07-31T08:53:46.948Z,46.70
2018-07-31T08:56:15.547Z,45.90
2018-07-31T08:58:46.443Z,45.80
2018-07-31T09:01:15.104Z,45.40
2018-07-31T09:03:43.736Z,45.90
2018-07-31T09:06:12.396Z,45.80
2018-07-31T09:08:41.093Z,46.00
2018-07-31T09:11:09.750Z,46.40
2018-07-31T09:13:38.444Z,46.80
2018-07-31T09:16:07.096Z,47.10
2018-07-31T09:18:36.064Z,46.50
2018-07-31T09:21:04.924Z,46.00
2018-07-31T09:23:33.609Z,46.50
2018-07-31T09:26:02.263Z,46.30
2018-07-31T09:28:30.895Z,46.20
2018-07-31T09:31:05.021Z,46.10
2018-07-31T09:33:33.571Z,46.00
2018-07-31T09:36:02.192Z,46.20
2018-07-31T09:38:30.788Z,46.30
2018-07-31T09:40:59.417Z,46.30
2018-07-31T09:45:56.308Z,45.20
2018-07-31T09:48:24.937Z,43.90
2018-07-31T09:50:53.635Z,43.10
2018-07-31T09:53:22.264Z,42.80
2018-07-31T09:55:50.911Z,42.20
2018-07-31T09:58:19.539Z,42.00
2018-07-31T10:00:53.488Z,41.50
2018-07-31T10:03:22.171Z,41.10
2018-07-31T10:05:50.818Z,40.90
2018-07-31T10:08:20.372Z,41.10
2018-07-31T10:10:49.956Z,41.00
2018-07-31T10:13:18.731Z,40.80
2018-07-31T10:15:47.416Z,41.30
2018-07-31T10:18:16.164Z,40.40
2018-07-31T10:20:44.720Z,40.90
2018-07-31T10:23:13.351Z,40.60
2018-07-31T10:25:42.016Z,40.00
2018-07-31T10:28:10.636Z,40.70
2018-07-31T10:30:39.288Z,39.10
2018-07-31T10:33:07.956Z,39.30
2018-07-31T10:35:36.684Z,40.10
2018-07-31T10:38:05.440Z,38.80
2018-07-31T10:40:34.063Z,38.60
2018-07-31T10:43:02.684Z,38.20
2018-07-31T10:45:31.301Z,38.60
2018-07-31T10:47:59.896Z,38.60
2018-07-31T10:50:28.533Z,38.10
2018-07-31T10:52:57.187Z,37.90
2018-07-31T10:55:25.818Z,38.00
2018-07-31T10:57:54.472Z,37.10
2018-07-31T11:00:23.172Z,36.70
2018-07-31T11:02:51.943Z,37.30
2018-07-31T11:05:20.528Z,37.10
2018-07-31T11:07:49.136Z,37.40
2018-07-31T11:10:17.800Z,36.80
2018-07-31T11:12:46.479Z,36.40
2018-07-31T11:15:15.224Z,36.50
2018-07-31T11:17:43.910Z,37.10
2018-07-31T11:20:12.559Z,36.80
2018-07-31T11:22:41.197Z,37.00
2018-07-31T11:25:09.872Z,37.40
2018-07-31T11:27:39.141Z,36.10
2018-07-31T11:30:07.851Z,36.00
2018-07-31T11:32:36.453Z,35.50
2018-07-31T11:35:05.963Z,35.30
2018-07-31T11:37:35.683Z,35.60
2018-07-31T11:40:04.447Z,35.10
2018-07-31T11:42:33.237Z,35.20
2018-07-31T11:45:02.181Z,35.40
2018-07-31T11:47:30.852Z,35.30
2018-07-31T11:49:59.576Z,35.90
2018-07-31T11:52:28.122Z,36.00
2018-07-31T11:54:56.832Z,36.10
2018-07-31T11:57:25.455Z,36.00
2018-07-31T11:59:54.083Z,36.10
2018-07-31T12:02:22.729Z,35.90
2018-07-31T12:04:51.351Z,35.70
2018-07-31T12:07:20.006Z,35.30
2018-07-31T12:09:48.679Z,35.20
2018-07-31T12:12:17.311Z,35.30
2018-07-31T12:14:46.096Z,35.10
2018-07-31T12:17:14.764Z,35.20
2018-07-31T12:19:43.404Z,35.10
2018-07-31T12:22:12.078Z,34.80
2018-07-31T12:24:40.692Z,34.50
2018-07-31T12:27:09.359Z,35.10
2018-07-31T12:29:38.009Z,34.50
2018-07-31T12:32:06.889Z,35.00
2018-07-31T12:34:35.502Z,34.80
2018-07-31T12:37:04.179Z,35.20
2018-07-31T12:39:32.796Z,34.70
2018-07-31T12:42:01.473Z,34.50
2018-07-31T12:44:30.098Z,35.30
2018-07-31T12:46:58.798Z,34.30
2018-07-31T12:49:27.449Z,34.20
2018-07-31T12:51:56.083Z,34.10
2018-07-31T12:54:24.697Z,33.70
2018-07-31T12:56:53.700Z,34.10
2018-07-31T12:59:22.389Z,33.70
2018-07-31T13:01:51.087Z,33.10
2018-07-31T13:04:19.734Z,33.70
2018-07-31T13:06:48.394Z,33.60
2018-07-31T13:09:18.712Z,33.30
2018-07-31T13:11:49.252Z,33.30
2018-07-31T13:14:17.931Z,33.30
2018-07-31T13:16:46.581Z,35.10
2018-07-31T13:19:15.220Z,35.70
2018-07-31T13:21:43.847Z,36.10
2018-07-31T13:24:12.511Z,36.10
2018-07-31T13:26:41.149Z,35.70
2018-07-31T13:29:12.080Z,35.50
2018-07-31T13:31:40.756Z,35.30
2018-07-31T13:34:09.388Z,34.90
2018-07-31T13:39:09.360Z,34.90
2018-07-31T13:41:38.014Z,35.60
2018-07-31T13:44:07.313Z,35.10
2018-07-31T13:46:36.844Z,35.00
2018-07-31T13:49:06.112Z,35.30
2018-07-31T13:51:34.984Z,35.00
2018-07-31T13:54:03.789Z,34.90
2018-07-31T13:56:32.479Z,35.50
2018-07-31T13:59:01.295Z,35.40
2018-07-31T14:01:29.945Z,35.40
2018-07-31T14:03:58.636Z,35.20
2018-07-31T14:06:27.276Z,35.10
2018-07-31T14:08:55.892Z,34.90
2018-07-31T14:11:25.448Z,34.90
2018-07-31T14:13:55.902Z,34.60
2018-07-31T14:16:24.531Z,35.10
2018-07-31T14:18:53.717Z,35.00
2018-07-31T14:21:23.124Z,35.30
2018-07-31T14:23:51.752Z,35.50
2018-07-31T14:26:20.368Z,35.70
2018-07-31T14:28:49.141Z,35.50
2018-07-31T14:31:17.855Z,35.70
2018-07-31T14:33:46.529Z,35.60
2018-07-31T14:36:15.224Z,35.70
2018-07-31T14:38:43.937Z,35.60
2018-07-31T14:41:12.644Z,35.50
2018-07-31T14:43:41.272Z,35.70
2018-07-31T14:46:11.783Z,35.70
2018-07-31T14:48:40.420Z,36.50
2018-07-31T14:51:09.248Z,36.10
2018-07-31T14:53:37.919Z,36.20
2018-07-31T14:56:07.348Z,36.60
2018-07-31T14:58:36.052Z,36.60
2018-07-31T15:01:04.676Z,37.00
2018-07-31T15:03:33.313Z,35.90
2018-07-31T15:06:02.012Z,35.90
2018-07-31T15:08:31.529Z,35.90
2018-07-31T15:11:00.164Z,36.40
2018-07-31T15:13:28.992Z,36.40
2018-07-31T15:15:57.656Z,35.80
2018-07-31T15:18:26.604Z,36.20
2018-07-31T15:20:55.406Z,36.10
2018-07-31T15:23:24.037Z,36.60
2018-07-31T15:25:52.701Z,37.10
2018-07-31T15:28:22.595Z,36.30
2018-07-31T15:30:51.240Z,36.20
2018-07-31T15:33:19.943Z,36.30
2018-07-31T15:35:48.619Z,36.20
2018-07-31T15:38:17.235Z,36.20
2018-07-31T15:40:45.928Z,36.00
2018-07-31T15:43:15.137Z,36.20
2018-07-31T15:45:44.180Z,36.30
2018-07-31T15:50:41.268Z,36.90
2018-07-31T15:53:10.016Z,36.60
2018-07-31T15:55:38.944Z,35.70
2018-07-31T15:58:07.940Z,34.80
2018-07-31T16:00:36.584Z,35.40
2018-07-31T16:03:05.345Z,35.50
2018-07-31T16:05:34.092Z,35.40
2018-07-31T16:08:02.733Z,35.50
2018-07-31T16:10:31.400Z,35.80
2018-07-31T16:13:00.102Z,35.50
2018-07-31T16:15:28.764Z,35.40
2018-07-31T16:17:57.408Z,34.80
2018-07-31T16:20:26.076Z,35.40
2018-07-31T16:25:23.187Z,36.20
2018-07-31T16:27:51.880Z,36.70
2018-07-31T16:30:20.532Z,37.30
2018-07-31T16:32:49.140Z,37.90
2018-07-31T16:35:17.832Z,38.20
2018-07-31T16:37:46.496Z,38.40
2018-07-31T16:40:15.180Z,38.30
2018-07-31T16:42:43.801Z,38.30
2018-07-31T16:45:12.426Z,37.80
2018-07-31T16:47:41.134Z,38.90
2018-07-31T16:50:09.772Z,38.60
2018-07-31T16:52:39.008Z,38.70
2018-07-31T16:55:07.677Z,39.00
2018-07-31T16:57:36.296Z,39.60
2018-07-31T17:00:06.108Z,39.60
2018-07-31T17:02:34.732Z,39.80
2018-07-31T17:05:03.428Z,39.80
2018-07-31T17:07:32.053Z,40.40
2018-07-31T17:10:00.716Z,40.50
2018-07-31T17:14:57.668Z,41.30
2018-07-31T17:17:46.171Z,41.40
2018-07-31T17:20:15.826Z,41.80
2018-07-31T17:22:47.993Z,42.80
2018-07-31T17:25:17.221Z,43.00
2018-07-31T17:27:45.840Z,44.40
2018-07-31T17:30:14.652Z,43.90
2018-07-31T17:32:45.402Z,43.50
2018-07-31T17:35:14.218Z,43.70
2018-07-31T17:37:44.296Z,43.70
2018-07-31T17:40:13.334Z,44.10
2018-07-31T17:42:41.977Z,44.80
2018-07-31T17:45:10.663Z,44.70
2018-07-31T17:47:41.492Z,45.30
2018-07-31T17:50:10.251Z,45.60
2018-07-31T17:52:38.896Z,45.90
2018-07-31T17:55:07.672Z,46.10
2018-07-31T17:57:36.332Z,46.00
2018-07-31T18:00:05.719Z,46.40
2018-07-31T18:02:34.401Z,46.90
2018-07-31T18:05:03.177Z,46.60
2018-07-31T18:07:31.812Z,46.70
2018-07-31T18:10:00.416Z,47.30
2018-07-31T18:12:29.096Z,47.60
2018-07-31T18:14:57.792Z,47.70
2018-07-31T18:17:26.472Z,47.90
2018-07-31T18:19:55.130Z,48.40
2018-07-31T18:22:23.795Z,48.70
2018-07-31T18:24:52.412Z,48.60
2018-07-31T18:27:21.077Z,48.90
2018-07-31T18:29:49.699Z,49.20
2018-07-31T18:32:18.311Z,49.20
2018-07-31T18:34:46.936Z,49.10
2018-07-31T18:37:15.605Z,49.20
2018-07-31T18:39:44.340Z,49.50
2018-07-31T18:42:13.981Z,49.60
2018-07-31T18:44:42.635Z,49.50
2018-07-31T18:47:11.363Z,49.50
2018-07-31T18:49:40.006Z,49.70
2018-07-31T18:52:08.703Z,49.80
2018-07-31T18:54:37.351Z,50.10
2018-07-31T18:57:06.051Z,50.50
2018-07-31T18:59:34.726Z,50.50
2018-07-31T19:02:03.372Z,50.70
2018-07-31T19:04:32.032Z,51.00
2018-07-31T19:07:00.685Z,51.30
2018-07-31T19:09:29.745Z,51.60
2018-07-31T19:11:58.389Z,51.90
2018-07-31T19:14:27.008Z,51.70
2018-07-31T19:16:55.625Z,52.30
2018-07-31T19:19:24.574Z,53.00
2018-07-31T19:21:53.228Z,52.90
2018-07-31T19:24:21.872Z,52.70
2018-07-31T19:26:50.508Z,52.20
2018-07-31T19:29:19.857Z,51.90
2018-07-31T19:31:48.557Z,51.70
2018-07-31T19:34:17.216Z,51.70
2018-07-31T19:36:45.871Z,52.60
2018-07-31T19:39:14.595Z,53.40
2018-07-31T19:41:48.785Z,53.80
2018-07-31T19:44:17.489Z,53.80
2018-07-31T19:46:46.127Z,54.00
2018-07-31T19:49:14.899Z,54.20
2018-07-31T19:51:43.556Z,54.90
2018-07-31T19:54:12.219Z,55.30
2018-07-31T19:56:40.904Z,55.50
2018-07-31T19:59:09.516Z,55.60
2018-07-31T20:01:38.124Z,55.70
2018-07-31T20:04:06.749Z,56.20
2018-07-31T20:06:35.364Z,57.20
2018-07-31T20:09:05.303Z,57.90
2018-07-31T20:11:33.924Z,58.20
2018-07-31T20:14:02.540Z,58.30
2018-07-31T20:16:31.151Z,58.40
2018-07-31T20:21:28.152Z,58.50
2018-07-31T20:23:56.797Z,58.20
2018-07-31T20:26:25.407Z,59.20
2018-07-31T20:28:54.038Z,58.30
2018-07-31T20:31:22.648Z,57.80
2018-07-31T20:33:51.264Z,56.90
2018-07-31T20:36:19.901Z,56.10
2018-07-31T20:38:48.520Z,55.50
2018-07-31T20:41:17.178Z,55.10
2018-07-31T20:43:45.868Z,54.80
2018-07-31T20:46:14.530Z,54.90
2018-07-31T20:48:43.184Z,56.10
2018-07-31T20:51:11.863Z,56.50
2018-07-31T20:53:40.481Z,56.50
2018-07-31T20:56:09.087Z,56.70
2018-07-31T20:58:37.679Z,56.90
2018-07-31T21:01:06.341Z,57.40
2018-07-31T21:03:34.944Z,57.70
2018-07-31T21:06:03.628Z,57.90
2018-07-31T21:08:32.259Z,58.20
2018-07-31T21:11:00.900Z,57.60
2018-07-31T21:13:29.496Z,58.50
2018-07-31T21:15:58.108Z,59.00
2018-07-31T21:18:26.957Z,59.60
2018-07-31T21:20:55.880Z,60.10
2018-07-31T21:23:24.684Z,60.90
2018-07-31T21:25:53.292Z,61.60
2018-07-31T21:28:22.311Z,62.20
2018-07-31T21:30:50.887Z,63.00
2018-07-31T21:33:19.516Z,63.10
2018-07-31T21:35:48.156Z,63.50
2018-07-31T21:38:16.796Z,64.10
2018-07-31T21:40:45.404Z,64.50
2018-07-31T21:43:14.010Z,64.80
2018-07-31T21:45:42.624Z,64.90
2018-07-31T21:48:11.235Z,65.10
2018-07-31T21:50:39.904Z,64.90
2018-07-31T21:53:08.540Z,65.10
2018-07-31T21:55:37.187Z,65.10
2018-07-31T21:58:05.792Z,64.80
2018-07-31T22:01:37.461Z,65.00
2018-07-31T22:04:06.180Z,65.00
2018-07-31T22:06:34.806Z,64.90
2018-07-31T22:09:04.000Z,65.40
2018-07-31T22:11:32.639Z,66.10
2018-07-31T22:14:01.293Z,66.20
2018-07-31T22:16:29.904Z,66.50
2018-07-31T22:18:58.549Z,66.90
2018-07-31T22:21:27.232Z,67.20
2018-07-31T22:23:55.856Z,68.00
2018-07-31T22:26:24.452Z,68.50
2018-07-31T22:28:53.125Z,68.60
2018-07-31T22:31:21.728Z,68.90
2018-07-31T22:33:50.340Z,69.00
2018-07-31T22:36:18.952Z,69.50
2018-07-31T22:38:47.544Z,69.80
2018-07-31T22:41:16.144Z,70.00
2018-07-31T22:43:44.860Z,70.20
2018-07-31T22:46:13.404Z,70.10
2018-07-31T22:48:42.009Z,69.50
2018-07-31T22:51:10.599Z,68.80
2018-07-31T22:53:39.211Z,68.00
2018-07-31T22:56:07.807Z,67.70
2018-07-31T22:58:36.474Z,67.40
2018-07-31T23:01:05.128Z,67.70
2018-07-31T23:03:33.734Z,67.90
2018-07-31T23:06:02.339Z,68.10
2018-07-31T23:08:32.371Z,68.70
2018-07-31T23:11:01.519Z,69.30
2018-07-31T23:13:30.303Z,69.20
2018-07-31T23:15:58.992Z,70.60
2018-07-31T23:18:27.608Z,70.50
2018-07-31T23:20:56.269Z,70.60
2018-07-31T23:23:26.048Z,70.30
2018-07-31T23:25:56.825Z,70.40
2018-07-31T23:28:25.489Z,70.60
2018-07-31T23:30:54.156Z,70.90
2018-07-31T23:33:22.755Z,70.60
2018-07-31T23:35:51.620Z,70.70
2018-07-31T23:38:20.224Z,70.90
2018-07-31T23:40:49.171Z,71.20
2018-07-31T23:43:17.936Z,72.10
2018-07-31T23:45:46.655Z,72.70
2018-07-31T23:48:15.253Z,73.20
2018-07-31T23:50:43.956Z,73.10
2018-07-31T23:53:12.564Z,72.60
2018-07-31T23:55:41.160Z,71.40
2018-07-31T23:58:09.796Z,71.00
